Time;durP1;ratioP1;P1;durP2;ratioP2;P2;SDS_P1;SDS_P2;PMS_P1;PMS_P2;Temp;Humidity;BMP_temperature;BMP_pressure;BME280_temperature;BME280_humidity;BME280_pressure;Samples;Min_cycle;Max_cycle;Signal;HPM_P1;HPM_P2
2023/12/16 00:02:24;;;;;;;7.93;1.55;;;;;;;;;;4999894;28;20061;-66
2023/12/16 00:04:52;;;;;;;7.00;1.70;;;;;;;;;;4999812;28;20092;-67
2023/12/16 00:07:19;;;;;;;6.88;1.75;;;;;;;;;;4990084;28;20054;-67
2023/12/16 00:09:46;;;;;;;8.90;1.45;;;;;;;;;;4993345;28;20272;-67
2023/12/16 00:12:13;;;;;;;10.25;1.90;;;;;;;;;;4998589;28;20124;-67
2023/12/16 00:14:40;;;;;;;5.78;1.85;;;;;;;;;;4997812;28;20124;-67
2023/12/16 00:17:07;;;;;;;10.35;1.92;;;;;;;;;;4991126;28;20062;-66
2023/12/16 00:19:35;;;;;;;12.07;2.17;;;;;;;;;;4996471;28;20120;-66
2023/12/16 00:22:03;;;;;;;;;;;;;;;;;;5010583;28;20219;-66
2023/12/16 00:24:30;;;;;;;9.32;2.40;;;;;;;;;;4996603;28;20034;-66
2023/12/16 00:26:57;;;;;;;11.95;1.98;;;;;;;;;;4993577;28;20058;-67
2023/12/16 00:29:24;;;;;;;13.02;2.63;;;;;;;;;;4994674;28;20070;-67
2023/12/16 00:31:50;;;;;;;13.18;2.08;;;;;;;;;;4989897;28;20132;-68
2023/12/16 00:34:17;;;;;;;9.38;2.78;;;;;;;;;;4996874;28;20077;-66
2023/12/16 00:36:44;;;;;;;15.25;3.75;;;;;;;;;;4994050;28;20057;-67
2023/12/16 00:39:12;;;;;;;23.02;5.22;;;;;;;;;;4998610;28;20118;-66
2023/12/16 00:41:39;;;;;;;15.82;3.05;;;;;;;;;;4998623;28;20066;-68
2023/12/16 00:44:06;;;;;;;8.35;2.17;;;;;;;;;;4996438;28;20066;-67
2023/12/16 00:46:33;;;;;;;12.18;2.72;;;;;;;;;;4981022;28;20061;-66
2023/12/16 00:49:00;;;;;;;13.20;2.70;;;;;;;;;;4996919;28;20164;-67
2023/12/16 00:51:27;;;;;;;10.75;2.13;;;;;;;;;;4977669;28;20062;-66
2023/12/16 00:53:53;;;;;;;11.45;2.22;;;;;;;;;;4981230;28;20062;-68
2023/12/16 00:56:22;;;;;;;12.45;2.88;;;;;;;;;;4997682;28;20129;-66
2023/12/16 00:58:48;;;;;;;10.93;2.08;;;;;;;;;;4978560;28;20058;-67
2023/12/16 01:01:15;;;;;;;9.20;2.28;;;;;;;;;;4994045;28;20129;-66
2023/12/16 01:03:42;;;;;;;9.65;2.42;;;;;;;;;;4971107;28;20054;-68
2023/12/16 01:06:08;;;;;;;11.27;1.92;;;;;;;;;;4943415;28;20093;-66
2023/12/16 01:08:35;;;;;;;8.75;1.75;;;;;;;;;;4959328;28;20051;-66
2023/12/16 01:11:01;;;;;;;9.10;2.08;;;;;;;;;;4959129;28;20082;-66
2023/12/16 01:13:30;;;;;;;9.23;2.20;;;;;;;;;;4956314;28;20062;-67
2023/12/16 01:15:57;;;;;;;;;;;;;;;;;;4970934;28;20062;-67
2023/12/16 01:18:24;;;;;;;10.20;1.60;;;;;;;;;;4957625;28;19926;-67
2023/12/16 01:20:51;;;;;;;17.10;5.97;;;;;;;;;;4961507;28;20038;-68
2023/12/16 01:23:18;;;;;;;17.42;4.25;;;;;;;;;;4959369;28;20046;-66
2023/12/16 01:25:44;;;;;;;35.10;9.65;;;;;;;;;;4947586;28;20153;-66
2023/12/16 01:28:12;;;;;;;11.02;2.60;;;;;;;;;;4959073;28;20093;-67
2023/12/16 01:30:40;;;;;;;8.30;1.58;;;;;;;;;;4967460;28;20059;-66
2023/12/16 01:33:07;;;;;;;9.40;1.65;;;;;;;;;;4957751;28;20067;-66
2023/12/16 01:35:33;;;;;;;8.50;1.55;;;;;;;;;;4949809;28;20121;-65
2023/12/16 01:38:00;;;;;;;8.70;1.70;;;;;;;;;;4971381;28;20059;-67
2023/12/16 01:40:27;;;;;;;8.07;1.50;;;;;;;;;;4958619;28;20055;-66
2023/12/16 01:42:55;;;;;;;6.68;1.65;;;;;;;;;;4957306;28;20173;-67
2023/12/16 01:45:22;;;;;;;5.90;1.30;;;;;;;;;;4963615;28;20113;-63
2023/12/16 01:47:50;;;;;;;16.60;1.67;;;;;;;;;;4952690;28;20054;-64
2023/12/16 01:50:17;;;;;;;12.30;1.65;;;;;;;;;;4958800;28;20066;-65
2023/12/16 01:52:45;;;;;;;8.05;1.55;;;;;;;;;;4958352;28;20145;-64
2023/12/16 01:55:12;;;;;;;9.52;1.77;;;;;;;;;;4958483;28;20055;-65
2023/12/16 01:57:41;;;;;;;16.40;1.92;;;;;;;;;;4952245;28;20067;-65
2023/12/16 02:00:09;;;;;;;7.63;1.42;;;;;;;;;;4960822;28;20063;-64
2023/12/16 02:02:36;;;;;;;8.65;1.52;;;;;;;;;;4950150;28;20122;-65
2023/12/16 02:05:05;;;;;;;6.45;1.38;;;;;;;;;;4980425;28;20082;-64
2023/12/16 02:07:33;;;;;;;;;;;;;;;;;;4995641;28;20120;-64
2023/12/16 02:10:01;;;;;;;6.88;1.48;;;;;;;;;;4999015;28;19925;-65
2023/12/16 02:12:28;;;;;;;4.93;1.33;;;;;;;;;;4995383;28;20046;-66
2023/12/16 02:14:54;;;;;;;14.93;1.75;;;;;;;;;;5005111;28;20468;-66
2023/12/16 02:17:21;;;;;;;7.15;1.48;;;;;;;;;;4996864;28;20049;-65
2023/12/16 02:19:48;;;;;;;7.53;1.30;;;;;;;;;;4999381;28;20119;-66
2023/12/16 02:22:16;;;;;;;7.32;1.30;;;;;;;;;;4998828;28;20053;-65
2023/12/16 02:24:45;;;;;;;17.48;1.85;;;;;;;;;;4999079;28;20092;-66
2023/12/16 02:27:11;;;;;;;8.80;1.70;;;;;;;;;;4996388;28;20061;-66
2023/12/16 02:29:40;;;;;;;7.88;1.52;;;;;;;;;;4999723;28;20108;-66
2023/12/16 02:32:07;;;;;;;6.30;1.65;;;;;;;;;;4995119;28;20057;-65
2023/12/16 02:34:34;;;;;;;4.35;1.38;;;;;;;;;;4998736;28;20169;-66
2023/12/16 02:37:05;;;;;;;6.75;2.10;;;;;;;;;;5007944;28;20046;-66
2023/12/16 02:39:32;;;;;;;6.20;1.50;;;;;;;;;;5013016;28;20042;-66
2023/12/16 02:42:00;;;;;;;8.38;1.63;;;;;;;;;;4999284;28;20085;-65
2023/12/16 02:44:27;;;;;;;13.20;2.72;;;;;;;;;;5000387;28;20061;-65
2023/12/16 02:46:53;;;;;;;14.55;4.15;;;;;;;;;;5001375;28;20065;-65
2023/12/16 02:49:20;;;;;;;8.45;2.75;;;;;;;;;;5002378;28;20125;-65
2023/12/16 02:51:47;;;;;;;10.10;2.20;;;;;;;;;;4991727;28;20050;-64
2023/12/16 02:54:13;;;;;;;5.18;1.63;;;;;;;;;;4998130;28;20124;-64
2023/12/16 02:56:40;;;;;;;7.75;1.90;;;;;;;;;;4999088;28;20133;-65
2023/12/16 02:59:08;;;;;;;8.38;1.60;;;;;;;;;;4997857;28;20068;-65
2023/12/16 03:01:35;;;;;;;10.85;1.80;;;;;;;;;;4998774;28;20062;-65
2023/12/16 03:04:02;;;;;;;7.88;1.80;;;;;;;;;;4979679;28;20080;-65
2023/12/16 03:06:29;;;;;;;9.60;1.90;;;;;;;;;;4977806;28;20068;-66
2023/12/16 03:08:55;;;;;;;8.60;1.85;;;;;;;;;;4977996;28;20197;-65
2023/12/16 03:11:22;;;;;;;11.35;1.95;;;;;;;;;;4980763;28;20085;-66
2023/12/16 03:13:49;;;;;;;10.73;1.88;;;;;;;;;;4970944;28;20057;-66
2023/12/16 03:16:17;;;;;;;9.38;2.00;;;;;;;;;;4995416;28;20062;-66
2023/12/16 03:18:44;;;;;;;11.80;2.22;;;;;;;;;;4995965;28;20079;-65
2023/12/16 03:21:10;;;;;;;10.95;2.35;;;;;;;;;;4997624;28;20049;-65
2023/12/16 03:23:37;;;;;;;14.10;2.22;;;;;;;;;;4997860;28;20045;-66
2023/12/16 03:26:04;;;;;;;5.88;2.45;;;;;;;;;;4994350;28;20057;-65
2023/12/16 03:28:31;;;;;;;15.85;2.20;;;;;;;;;;4993405;28;20108;-67
2023/12/16 03:30:57;;;;;;;12.55;2.40;;;;;;;;;;4999506;28;20133;-65
2023/12/16 03:33:26;;;;;;;12.90;2.47;;;;;;;;;;5001815;28;20077;-65
2023/12/16 03:35:52;;;;;;;7.53;2.58;;;;;;;;;;4998472;28;20053;-65
2023/12/16 03:38:19;;;;;;;12.32;2.25;;;;;;;;;;4991307;28;20082;-65
2023/12/16 03:40:46;;;;;;;8.52;2.88;;;;;;;;;;4990791;28;20076;-65
2023/12/16 03:43:13;;;;;;;13.32;2.83;;;;;;;;;;4997982;28;20092;-65
2023/12/16 03:45:39;;;;;;;6.93;2.40;;;;;;;;;;4993424;28;20141;-66
2023/12/16 03:48:06;;;;;;;9.95;2.38;;;;;;;;;;4996740;28;20054;-64
2023/12/16 03:50:34;;;;;;;7.25;2.15;;;;;;;;;;4996361;28;20124;-64
2023/12/16 03:53:01;;;;;;;12.60;2.25;;;;;;;;;;4996782;28;20053;-66
2023/12/16 03:55:28;;;;;;;8.45;2.25;;;;;;;;;;4984983;28;20256;-65
2023/12/16 03:57:54;;;;;;;15.88;2.97;;;;;;;;;;4998210;28;20053;-65
2023/12/16 04:00:21;;;;;;;9.90;2.53;;;;;;;;;;5013531;28;20053;-65
2023/12/16 04:02:48;;;;;;;12.38;3.55;;;;;;;;;;4993172;28;20068;-66
2023/12/16 04:05:14;;;;;;;13.60;4.25;;;;;;;;;;4995474;28;20157;-65
2023/12/16 04:07:43;;;;;;;11.23;3.35;;;;;;;;;;5002714;28;20054;-66
2023/12/16 04:10:10;;;;;;;10.35;3.42;;;;;;;;;;4996975;28;20089;-66
2023/12/16 04:12:36;;;;;;;12.45;2.85;;;;;;;;;;4994658;28;20053;-65
2023/12/16 04:15:03;;;;;;;9.88;2.70;;;;;;;;;;4986575;28;20194;-64
2023/12/16 04:17:30;;;;;;;11.88;2.67;;;;;;;;;;4977658;28;20054;-65
2023/12/16 04:19:57;;;;;;;9.50;3.28;;;;;;;;;;4978702;28;20054;-64
2023/12/16 04:22:23;;;;;;;16.48;2.88;;;;;;;;;;4975669;28;20156;-65
2023/12/16 04:24:57;;;;;;;8.75;2.80;;;;;;;;;;4968586;28;20058;-66
2023/12/16 04:27:24;;;;;;;15.48;3.08;;;;;;;;;;4978481;28;20120;-65
2023/12/16 04:29:51;;;;;;;7.88;2.53;;;;;;;;;;4992950;28;20066;-64
2023/12/16 04:32:18;;;;;;;12.65;2.97;;;;;;;;;;4978033;28;20124;-65
2023/12/16 04:34:45;;;;;;;9.38;2.90;;;;;;;;;;4985743;28;20080;-64
2023/12/16 04:37:12;;;;;;;9.85;2.45;;;;;;;;;;4997469;28;20129;-65
2023/12/16 04:39:39;;;;;;;11.55;2.42;;;;;;;;;;4996814;28;20049;-64
2023/12/16 04:42:09;;;;;;;13.48;2.78;;;;;;;;;;4997657;28;20066;-64
2023/12/16 04:44:37;;;;;;;7.35;2.53;;;;;;;;;;4987623;28;20058;-65
2023/12/16 04:47:04;;;;;;;9.20;2.28;;;;;;;;;;5001492;28;20117;-65
2023/12/16 04:49:30;;;;;;;14.75;3.13;;;;;;;;;;4997053;28;20156;-66
2023/12/16 04:51:57;;;;;;;7.07;2.58;;;;;;;;;;4996663;28;20060;-66
2023/12/16 04:54:24;;;;;;;7.15;2.00;;;;;;;;;;4993179;28;20149;-65
2023/12/16 04:56:50;;;;;;;12.10;2.65;;;;;;;;;;4992223;28;20049;-65
2023/12/16 04:59:18;;;;;;;12.85;3.97;;;;;;;;;;5000992;28;20104;-65
2023/12/16 05:01:45;;;;;;;11.50;3.10;;;;;;;;;;4998829;28;20076;-65
2023/12/16 05:04:12;;;;;;;7.80;2.30;;;;;;;;;;4997940;28;20157;-65
2023/12/16 05:06:38;;;;;;;10.82;2.70;;;;;;;;;;4992705;28;20049;-66
2023/12/16 05:09:10;;;;;;;8.73;2.72;;;;;;;;;;4996686;28;20061;-67
2023/12/16 05:11:36;;;;;;;11.38;3.15;;;;;;;;;;5005646;28;20435;-65
2023/12/16 05:14:03;;;;;;;13.63;2.45;;;;;;;;;;4993820;28;20058;-65
2023/12/16 05:16:31;;;;;;;11.93;2.30;;;;;;;;;;4993713;28;20257;-67
2023/12/16 05:18:59;;;;;;;11.27;2.50;;;;;;;;;;4986988;28;20055;-65
2023/12/16 05:21:26;;;;;;;8.68;2.03;;;;;;;;;;4987890;28;20054;-65
2023/12/16 05:23:53;;;;;;;10.32;2.13;;;;;;;;;;4980002;28;20054;-65
2023/12/16 05:26:21;;;;;;;10.70;2.35;;;;;;;;;;4991430;28;20066;-65
2023/12/16 05:28:47;;;;;;;9.15;2.50;;;;;;;;;;4992277;28;20074;-66
2023/12/16 05:31:14;;;;;;;8.90;2.25;;;;;;;;;;5002826;28;20115;-65
2023/12/16 05:33:44;;;;;;;9.05;2.58;;;;;;;;;;4988154;28;20062;-66
2023/12/16 05:36:11;;;;;;;5.90;2.15;;;;;;;;;;5002198;28;20132;-66
2023/12/16 05:38:38;;;;;;;11.77;2.30;;;;;;;;;;5005975;28;20135;-66
2023/12/16 05:41:06;;;;;;;10.60;2.47;;;;;;;;;;5000903;28;20066;-65
2023/12/16 05:43:33;;;;;;;9.32;2.35;;;;;;;;;;4995976;28;20061;-64
2023/12/16 05:46:00;;;;;;;8.75;2.50;;;;;;;;;;4993868;28;20062;-65
2023/12/16 05:48:26;;;;;;;11.15;2.75;;;;;;;;;;4989520;28;20085;-64
2023/12/16 05:50:54;;;;;;;12.95;2.67;;;;;;;;;;4994815;28;20159;-65
2023/12/16 05:53:21;;;;;;;11.18;2.50;;;;;;;;;;5005185;28;20129;-65
2023/12/16 05:55:48;;;;;;;12.20;2.60;;;;;;;;;;4985857;28;20129;-66
2023/12/16 05:58:14;;;;;;;11.65;2.85;;;;;;;;;;4998726;28;20062;-65
2023/12/16 06:00:41;;;;;;;12.15;2.00;;;;;;;;;;4994292;28;20098;-66
2023/12/16 06:03:08;;;;;;;10.82;2.72;;;;;;;;;;4999371;28;20066;-64
2023/12/16 06:05:36;;;;;;;15.13;2.80;;;;;;;;;;4996378;28;20060;-64
2023/12/16 06:08:05;;;;;;;9.82;2.40;;;;;;;;;;5000450;28;20045;-66
2023/12/16 06:10:31;;;;;;;8.38;3.15;;;;;;;;;;4996093;28;20049;-67
2023/12/16 06:12:58;;;;;;;23.63;3.00;;;;;;;;;;4998917;28;20057;-65
2023/12/16 06:15:25;;;;;;;10.45;2.28;;;;;;;;;;4984112;28;20082;-66
2023/12/16 06:17:52;;;;;;;10.02;2.80;;;;;;;;;;4989449;28;20157;-65
2023/12/16 06:20:19;;;;;;;7.60;2.53;;;;;;;;;;4997924;28;20042;-65
2023/12/16 06:22:45;;;;;;;8.35;2.58;;;;;;;;;;4971476;28;20077;-65
2023/12/16 06:25:14;;;;;;;12.15;2.65;;;;;;;;;;4978415;28;20062;-64
2023/12/16 06:27:43;;;;;;;9.40;2.70;;;;;;;;;;4979378;28;20058;-65
2023/12/16 06:30:12;;;;;;;7.25;2.38;;;;;;;;;;4974561;28;20061;-65
2023/12/16 06:32:39;;;;;;;11.90;2.28;;;;;;;;;;4970550;28;20069;-65
2023/12/16 06:35:06;;;;;;;9.30;2.38;;;;;;;;;;4985713;28;20058;-65
2023/12/16 06:37:36;;;;;;;7.97;2.67;;;;;;;;;;4996751;28;20162;-65
2023/12/16 06:40:03;;;;;;;15.23;2.33;;;;;;;;;;4995882;28;20332;-65
2023/12/16 06:42:31;;;;;;;13.02;2.22;;;;;;;;;;4994689;28;20058;-65
2023/12/16 06:44:58;;;;;;;6.63;2.55;;;;;;;;;;4989007;28;20054;-65
2023/12/16 06:47:24;;;;;;;8.32;2.63;;;;;;;;;;4976665;28;20137;-65
2023/12/16 06:49:52;;;;;;;14.63;2.75;;;;;;;;;;4979256;28;20074;-65
2023/12/16 06:52:19;;;;;;;13.82;2.45;;;;;;;;;;4984423;28;20370;-65
2023/12/16 06:54:46;;;;;;;12.32;3.00;;;;;;;;;;4980543;28;20050;-65
2023/12/16 06:57:12;;;;;;;13.70;2.35;;;;;;;;;;5001804;28;20049;-65
2023/12/16 06:59:40;;;;;;;10.63;2.35;;;;;;;;;;5002432;28;20165;-66
2023/12/16 07:02:07;;;;;;;12.18;2.70;;;;;;;;;;5001226;28;20072;-65
2023/12/16 07:04:33;;;;;;;8.88;2.85;;;;;;;;;;4992499;28;20615;-65
2023/12/16 07:07:00;;;;;;;16.30;2.70;;;;;;;;;;4998866;28;20073;-65
2023/12/16 07:09:27;;;;;;;8.40;2.35;;;;;;;;;;5001039;28;20069;-65
2023/12/16 07:11:53;;;;;;;20.05;4.05;;;;;;;;;;4999999;28;20268;-64
2023/12/16 07:14:21;;;;;;;10.40;2.20;;;;;;;;;;4997309;28;20054;-65
2023/12/16 07:16:49;;;;;;;11.50;2.53;;;;;;;;;;4999999;28;20050;-65
2023/12/16 07:19:15;;;;;;;6.22;2.50;;;;;;;;;;4999744;28;20081;-65
2023/12/16 07:21:42;;;;;;;7.88;2.30;;;;;;;;;;4998411;28;20034;-66
2023/12/16 07:24:09;;;;;;;10.10;2.70;;;;;;;;;;4999137;28;20153;-64
2023/12/16 07:26:36;;;;;;;14.77;2.65;;;;;;;;;;4994088;28;20061;-65
2023/12/16 07:29:03;;;;;;;13.65;2.30;;;;;;;;;;5000732;28;20050;-65
2023/12/16 07:31:30;;;;;;;16.40;3.75;;;;;;;;;;5003132;28;20087;-69
2023/12/16 07:33:58;;;;;;;14.55;4.07;;;;;;;;;;4990563;28;20072;-64
2023/12/16 07:36:24;;;;;;;9.98;3.50;;;;;;;;;;4976739;28;20073;-65
2023/12/16 07:38:51;;;;;;;12.65;2.90;;;;;;;;;;4968927;28;20168;-65
2023/12/16 07:41:18;;;;;;;14.48;2.45;;;;;;;;;;4976104;28;20114;-65
2023/12/16 07:43:44;;;;;;;12.35;3.10;;;;;;;;;;4970836;28;20053;-65
2023/12/16 07:46:11;;;;;;;12.50;2.78;;;;;;;;;;4992047;28;20054;-65
2023/12/16 07:48:38;;;;;;;16.30;2.83;;;;;;;;;;4989596;28;20157;-67
2023/12/16 07:51:07;;;;;;;15.05;2.28;;;;;;;;;;4993072;28;20129;-64
2023/12/16 07:53:33;;;;;;;12.65;2.88;;;;;;;;;;4993392;28;20140;-66
2023/12/16 07:56:00;;;;;;;12.00;3.20;;;;;;;;;;5003762;28;20062;-64
2023/12/16 07:58:27;;;;;;;10.60;2.75;;;;;;;;;;4991919;28;20058;-65
2023/12/16 08:00:54;;;;;;;9.88;2.28;;;;;;;;;;5012778;28;20050;-65
2023/12/16 08:03:22;;;;;;;10.40;2.10;;;;;;;;;;4999333;28;20169;-65
2023/12/16 08:05:48;;;;;;;17.92;3.03;;;;;;;;;;5000313;28;20077;-64
2023/12/16 08:08:17;;;;;;;12.93;2.58;;;;;;;;;;4991902;28;20058;-66
2023/12/16 08:10:44;;;;;;;11.80;2.30;;;;;;;;;;4977748;28;20192;-65
2023/12/16 08:13:10;;;;;;;17.05;3.53;;;;;;;;;;5013035;28;20084;-66
2023/12/16 08:15:37;;;;;;;23.77;5.90;;;;;;;;;;5001892;28;20046;-65
2023/12/16 08:18:05;;;;;;;8.73;2.10;;;;;;;;;;4985058;28;20058;-65
2023/12/16 08:20:32;;;;;;;9.77;1.92;;;;;;;;;;4981609;28;20047;-65
2023/12/16 08:22:59;;;;;;;8.27;1.73;;;;;;;;;;5000740;28;20398;-66
2023/12/16 08:25:27;;;;;;;13.40;2.08;;;;;;;;;;4984475;28;20157;-64
2023/12/16 08:27:54;;;;;;;6.10;1.63;;;;;;;;;;4996685;28;20054;-65
2023/12/16 08:30:21;;;;;;;9.65;2.03;;;;;;;;;;5012867;28;20046;-66
2023/12/16 08:32:48;;;;;;;10.65;2.00;;;;;;;;;;4987604;28;20092;-65
2023/12/16 08:35:15;;;;;;;9.45;2.00;;;;;;;;;;4990282;28;20042;-64
2023/12/16 08:37:42;;;;;;;18.63;2.13;;;;;;;;;;4979485;28;20050;-65
2023/12/16 08:40:10;;;;;;;8.85;2.40;;;;;;;;;;4979357;28;20162;-64
2023/12/16 08:42:42;;;;;;;8.25;1.88;;;;;;;;;;4972639;28;20042;-64
2023/12/16 08:45:10;;;;;;;10.55;2.08;;;;;;;;;;4973800;28;20050;-66
2023/12/16 08:47:36;;;;;;;8.55;2.25;;;;;;;;;;4973009;28;20065;-65
2023/12/16 08:50:04;;;;;;;16.08;2.05;;;;;;;;;;4976851;28;20050;-65
2023/12/16 08:52:32;;;;;;;11.15;2.03;;;;;;;;;;4972860;28;20141;-65
2023/12/16 08:54:58;;;;;;;7.00;1.77;;;;;;;;;;4983955;28;20278;-65
2023/12/16 08:57:25;;;;;;;13.65;1.85;;;;;;;;;;4993726;28;20050;-65
2023/12/16 08:59:53;;;;;;;11.95;2.33;;;;;;;;;;4991781;28;20144;-65
2023/12/16 09:02:21;;;;;;;10.95;2.08;;;;;;;;;;4991131;28;20050;-64
2023/12/16 09:04:48;;;;;;;9.23;2.50;;;;;;;;;;4980476;28;20582;-64
2023/12/16 09:07:15;;;;;;;11.60;1.75;;;;;;;;;;4967787;28;20057;-65
2023/12/16 09:09:43;;;;;;;12.85;2.03;;;;;;;;;;4974542;28;20078;-66
2023/12/16 09:12:10;;;;;;;10.13;1.70;;;;;;;;;;4992038;28;20082;-65
2023/12/16 09:14:36;;;;;;;8.82;2.63;;;;;;;;;;4973656;28;20148;-66
2023/12/16 09:17:05;;;;;;;11.38;2.00;;;;;;;;;;5000545;28;20061;-64
2023/12/16 09:19:32;;;;;;;9.68;2.25;;;;;;;;;;4995589;28;20123;-64
2023/12/16 09:21:58;;;;;;;11.43;2.08;;;;;;;;;;4996536;28;20641;-65
2023/12/16 09:24:25;;;;;;;12.50;2.20;;;;;;;;;;4995033;28;20076;-65
2023/12/16 09:26:52;;;;;;;11.77;2.25;;;;;;;;;;4999862;28;20046;-64
2023/12/16 09:29:18;;;;;;;6.95;2.22;;;;;;;;;;4998769;28;20108;-65
2023/12/16 09:31:45;;;;;;;13.18;2.35;;;;;;;;;;4997283;28;20050;-64
2023/12/16 09:34:13;;;;;;;10.20;2.90;;;;;;;;;;4993439;28;20054;-65
2023/12/16 09:36:40;;;;;;;9.52;2.53;;;;;;;;;;4995940;28;20148;-65
2023/12/16 09:39:09;;;;;;;10.45;2.30;;;;;;;;;;4999676;28;20107;-65
2023/12/16 09:41:41;;;;;;;;;;;;;;;;;;4999105;28;20050;-64
2023/12/16 09:44:09;;;;;;;12.80;2.50;;;;;;;;;;5007086;28;20020;-64
2023/12/16 09:46:38;;;;;;;17.90;2.97;;;;;;;;;;4986030;28;20152;-64
2023/12/16 09:49:05;;;;;;;12.50;3.08;;;;;;;;;;4999893;28;20050;-65
2023/12/16 09:51:33;;;;;;;12.55;2.83;;;;;;;;;;4998611;28;20050;-65
2023/12/16 09:54:00;;;;;;;16.75;3.78;;;;;;;;;;4997391;28;20064;-64
2023/12/16 09:56:28;;;;;;;9.73;3.05;;;;;;;;;;5013729;28;20050;-63
2023/12/16 09:58:57;;;;;;;21.77;5.95;;;;;;;;;;5000285;28;20092;-64
2023/12/16 10:01:24;;;;;;;23.02;5.65;;;;;;;;;;4999508;28;20050;-64
2023/12/16 10:03:52;;;;;;;10.77;3.63;;;;;;;;;;4993786;28;20052;-64
2023/12/16 10:06:19;;;;;;;14.45;3.42;;;;;;;;;;4979339;28;20058;-64
2023/12/16 10:08:47;;;;;;;9.77;3.30;;;;;;;;;;4979834;28;20108;-64
2023/12/16 10:11:15;;;;;;;15.25;3.38;;;;;;;;;;4974833;28;20054;-64
2023/12/16 10:13:56;;;;;;;10.13;2.77;;;;;;;;;;4970189;28;20054;-65
2023/12/16 10:16:23;;;;;;;10.90;3.42;;;;;;;;;;4997860;28;20392;-64
2023/12/16 10:18:52;;;;;;;11.73;2.97;;;;;;;;;;4997101;28;21293;-64
2023/12/16 10:21:22;;;;;;;22.23;4.05;;;;;;;;;;4999483;28;20055;-64
2023/12/16 10:23:51;;;;;;;13.50;3.67;;;;;;;;;;4994321;28;20062;-65
2023/12/16 10:26:18;;;;;;;9.57;2.90;;;;;;;;;;5000790;28;20085;-64
2023/12/16 10:28:46;;;;;;;16.20;3.65;;;;;;;;;;4999335;28;20065;-63
2023/12/16 10:31:13;;;;;;;17.33;4.13;;;;;;;;;;5003609;28;20108;-65
2023/12/16 10:33:40;;;;;;;11.95;3.30;;;;;;;;;;4999702;28;20116;-66
2023/12/16 10:36:08;;;;;;;11.60;3.35;;;;;;;;;;5000639;28;20057;-64
2023/12/16 10:38:35;;;;;;;13.53;3.30;;;;;;;;;;4999368;28;20057;-64
2023/12/16 10:41:03;;;;;;;15.68;3.50;;;;;;;;;;5002995;28;20529;-64
2023/12/16 10:43:30;;;;;;;17.30;4.55;;;;;;;;;;5001601;28;20604;-64
2023/12/16 10:46:01;;;;;;;12.10;3.72;;;;;;;;;;4999651;28;20105;-63
2023/12/16 10:48:32;;;;;;;19.75;3.92;;;;;;;;;;4998155;28;20112;-64
2023/12/16 10:51:01;;;;;;;18.27;3.72;;;;;;;;;;4999811;28;20062;-64
2023/12/16 10:53:37;;;;;;;16.55;4.05;;;;;;;;;;5000997;28;20290;-65
2023/12/16 10:56:15;;;;;;;17.60;4.07;;;;;;;;;;5011803;28;20104;-65
2023/12/16 10:58:48;;;;;;;21.98;5.15;;;;;;;;;;4998097;28;20045;-65
2023/12/16 11:01:17;;;;;;;17.35;4.18;;;;;;;;;;5000594;28;20077;-66
2023/12/16 11:03:49;;;;;;;13.13;4.30;;;;;;;;;;4994494;28;20045;-65
2023/12/16 11:06:29;;;;;;;12.55;4.00;;;;;;;;;;4981614;28;20053;-64
2023/12/16 11:08:57;;;;;;;13.50;3.70;;;;;;;;;;4992889;28;20167;-64
2023/12/16 11:11:26;;;;;;;16.27;4.22;;;;;;;;;;4982162;28;20058;-65
2023/12/16 11:13:55;;;;;;;16.55;4.32;;;;;;;;;;4977150;28;20061;-65
2023/12/16 11:16:31;;;;;;;16.95;4.38;;;;;;;;;;4979703;28;20057;-63
2023/12/16 11:18:59;;;;;;;16.58;4.15;;;;;;;;;;4983044;28;20305;-64
2023/12/16 11:21:27;;;;;;;15.23;3.80;;;;;;;;;;4981671;28;20062;-64
2023/12/16 11:23:54;;;;;;;11.52;4.03;;;;;;;;;;4978771;28;20061;-65
2023/12/16 11:26:23;;;;;;;17.33;3.78;;;;;;;;;;5000386;28;20050;-65
2023/12/16 11:28:54;;;;;;;17.02;4.10;;;;;;;;;;4988338;28;22070;-64
2023/12/16 11:31:21;;;;;;;14.27;4.00;;;;;;;;;;5000677;28;20058;-64
2023/12/16 11:33:48;;;;;;;19.70;4.45;;;;;;;;;;4996131;28;20090;-65
2023/12/16 11:36:15;;;;;;;15.38;4.50;;;;;;;;;;4982229;28;20141;-64
2023/12/16 11:38:43;;;;;;;13.23;4.07;;;;;;;;;;4975116;28;20318;-65
2023/12/16 11:41:40;;;;;;;14.23;4.78;;;;;;;;;;4979686;28;20054;-64
2023/12/16 11:44:11;;;;;;;13.27;3.92;;;;;;;;;;4982940;28;20073;-64
2023/12/16 11:46:42;;;;;;;13.40;4.05;;;;;;;;;;4995933;28;20054;-65
2023/12/16 11:49:11;;;;;;;12.98;4.10;;;;;;;;;;4999431;28;20058;-65
2023/12/16 11:51:39;;;;;;;12.65;4.65;;;;;;;;;;4999796;28;20054;-65
2023/12/16 11:54:07;;;;;;;16.00;6.07;;;;;;;;;;4989560;28;20123;-66
2023/12/16 11:56:37;;;;;;;13.85;4.03;;;;;;;;;;5016501;28;20057;-67
2023/12/16 11:59:05;;;;;;;15.73;4.40;;;;;;;;;;5013890;28;20072;-64
2023/12/16 12:01:35;;;;;;;11.43;3.83;;;;;;;;;;5002605;28;20054;-65
2023/12/16 12:04:03;;;;;;;14.55;4.13;;;;;;;;;;4995037;28;20207;-65
2023/12/16 12:06:33;;;;;;;13.40;4.40;;;;;;;;;;4959406;28;20042;-66
2023/12/16 12:09:00;;;;;;;12.70;4.72;;;;;;;;;;4960490;28;20352;-66
2023/12/16 12:11:26;;;;;;;12.43;5.50;;;;;;;;;;4961408;28;20047;-66
2023/12/16 12:13:55;;;;;;;8.68;3.08;;;;;;;;;;4966587;28;20054;-65
2023/12/16 12:16:29;;;;;;;11.20;3.97;;;;;;;;;;4962662;28;20051;-64
2023/12/16 12:18:57;;;;;;;13.50;4.10;;;;;;;;;;4948552;28;20061;-64
2023/12/16 12:21:24;;;;;;;10.25;3.40;;;;;;;;;;4960156;28;20054;-65
2023/12/16 12:23:50;;;;;;;8.40;3.10;;;;;;;;;;4958898;28;20058;-64
2023/12/16 12:26:20;;;;;;;9.52;3.60;;;;;;;;;;4960654;28;20514;-65
2023/12/16 12:28:56;;;;;;;13.50;3.90;;;;;;;;;;4956325;28;20074;-65
2023/12/16 12:31:23;;;;;;;11.88;3.60;;;;;;;;;;4958018;28;20078;-66
2023/12/16 12:33:50;;;;;;;12.25;4.10;;;;;;;;;;4959411;28;20097;-65
2023/12/16 12:36:18;;;;;;;15.13;5.45;;;;;;;;;;4940657;28;20058;-65
2023/12/16 12:38:46;;;;;;;10.75;4.63;;;;;;;;;;4937842;28;20113;-65
2023/12/16 12:41:16;;;;;;;10.00;4.45;;;;;;;;;;4937798;28;20150;-64
2023/12/16 12:43:42;;;;;;;9.95;3.75;;;;;;;;;;4944234;29;20051;-64
2023/12/16 12:46:12;;;;;;;10.65;3.95;;;;;;;;;;4936595;29;20047;-65
2023/12/16 12:48:40;;;;;;;9.50;3.70;;;;;;;;;;4939232;28;20055;-65
2023/12/16 12:51:08;;;;;;;14.55;5.70;;;;;;;;;;4942552;28;20154;-64
2023/12/16 12:53:37;;;;;;;9.30;4.05;;;;;;;;;;4960122;28;20043;-66
2023/12/16 12:56:04;;;;;;;11.23;3.70;;;;;;;;;;4942895;28;20115;-64
2023/12/16 12:58:34;;;;;;;10.10;3.85;;;;;;;;;;4941453;28;20051;-64
2023/12/16 13:01:03;;;;;;;10.98;4.20;;;;;;;;;;4940934;28;20043;-65
2023/12/16 13:03:31;;;;;;;14.18;4.60;;;;;;;;;;4940996;28;20066;-64
2023/12/16 13:05:58;;;;;;;14.32;4.00;;;;;;;;;;4986720;28;20057;-64
2023/12/16 13:08:26;;;;;;;10.60;3.83;;;;;;;;;;5005751;28;20058;-64
2023/12/16 13:10:54;;;;;;;5.82;2.88;;;;;;;;;;4993432;28;20049;-64
2023/12/16 13:13:22;;;;;;;7.53;2.92;;;;;;;;;;4997588;28;20053;-64
2023/12/16 13:15:49;;;;;;;11.30;3.80;;;;;;;;;;4993780;28;20072;-65
2023/12/16 13:18:16;;;;;;;11.15;4.72;;;;;;;;;;4998015;28;20058;-65
2023/12/16 13:20:44;;;;;;;7.43;3.47;;;;;;;;;;4994071;28;20046;-65
2023/12/16 13:23:11;;;;;;;8.77;3.75;;;;;;;;;;5000318;28;20053;-64
2023/12/16 13:25:38;;;;;;;8.30;3.47;;;;;;;;;;4996372;28;20165;-65
2023/12/16 13:28:06;;;;;;;8.68;3.67;;;;;;;;;;5000080;28;20581;-64
2023/12/16 13:30:33;;;;;;;12.57;3.90;;;;;;;;;;4992941;28;20049;-65
2023/12/16 13:33:00;;;;;;;7.55;3.72;;;;;;;;;;4998551;28;21071;-65
2023/12/16 13:35:27;;;;;;;7.82;3.53;;;;;;;;;;4994546;28;20128;-64
2023/12/16 13:37:54;;;;;;;9.98;3.38;;;;;;;;;;4997937;28;20071;-65
2023/12/16 13:40:23;;;;;;;8.18;3.13;;;;;;;;;;5007221;28;20172;-65
2023/12/16 13:42:50;;;;;;;9.52;3.63;;;;;;;;;;5010392;28;20049;-64
2023/12/16 13:45:20;;;;;;;11.90;3.83;;;;;;;;;;4992697;28;20104;-65
2023/12/16 13:47:47;;;;;;;7.60;3.30;;;;;;;;;;4998849;28;20054;-64
2023/12/16 13:50:14;;;;;;;10.15;3.38;;;;;;;;;;5001641;28;20042;-64
2023/12/16 13:52:40;;;;;;;7.53;3.53;;;;;;;;;;4996216;28;20136;-65
2023/12/16 13:55:08;;;;;;;8.82;3.60;;;;;;;;;;4990552;28;20132;-65
2023/12/16 13:57:35;;;;;;;10.10;3.60;;;;;;;;;;4998575;28;20129;-65
2023/12/16 14:00:02;;;;;;;8.68;3.95;;;;;;;;;;4999994;28;20069;-65
2023/12/16 14:02:30;;;;;;;15.05;5.50;;;;;;;;;;5002315;28;20052;-64
2023/12/16 14:04:59;;;;;;;7.60;3.50;;;;;;;;;;4994541;28;20337;-64
2023/12/16 14:07:26;;;;;;;10.23;3.13;;;;;;;;;;4994564;28;20054;-66
2023/12/16 14:09:53;;;;;;;7.13;3.17;;;;;;;;;;5007311;28;20194;-65
2023/12/16 14:12:19;;;;;;;7.50;3.53;;;;;;;;;;5002210;28;20153;-65
2023/12/16 14:14:46;;;;;;;7.75;3.10;;;;;;;;;;4993330;28;20129;-65
2023/12/16 14:17:13;;;;;;;5.88;2.97;;;;;;;;;;5004712;28;20061;-65
2023/12/16 14:19:42;;;;;;;7.43;2.88;;;;;;;;;;5003115;28;20061;-64
2023/12/16 14:22:08;;;;;;;4.60;2.20;;;;;;;;;;5005146;28;20133;-64
2023/12/16 14:24:38;;;;;;;5.25;2.40;;;;;;;;;;4992361;28;20104;-64
2023/12/16 14:27:05;;;;;;;6.13;2.78;;;;;;;;;;5020218;28;20054;-64
2023/12/16 14:29:32;;;;;;;8.48;3.03;;;;;;;;;;5001616;28;20053;-65
2023/12/16 14:31:58;;;;;;;7.55;2.90;;;;;;;;;;5003825;28;20088;-65
2023/12/16 14:34:25;;;;;;;8.73;3.75;;;;;;;;;;4993010;28;20138;-65
2023/12/16 14:36:53;;;;;;;6.22;2.63;;;;;;;;;;5002167;28;20119;-65
2023/12/16 14:39:20;;;;;;;5.93;2.75;;;;;;;;;;5003648;28;20050;-65